Flight Briefing for CPX364

Departure Arrival
Fort Worth Alliance Airport (KAFW)
Click to view FAA NOTAMS
March Air Reserve Base (KRIV)
Click to view FAA NOTAMS
Departure Time Arrival Time
N/A N/A
Aircraft Distance
B767-300BDSF 1001nm
Departure METAR Arrival METAR
KAFW 192325Z 04008KT 7SM -DZ BKN005 OVC012 03/02 A2992 RMK AO2 RAE11DZB23 P0000 T00330017 KRIV 192258Z AUTO 30003KT 10SM CLR 12/M08 A3005 RMK AO2 SLP178 T01151079
Suggested Route
SWABR5 DOSXX INK V94 TFD J169 TRM ARKOE1


View recent IFR Routes data
Notes



Charts and Procedures

Charts for KAFW
No chart available
Charts for KRIV
No chart available

Ventusky Weather




{"cat":null,"equip":null,"transponder":null,"pbn":"PBN\/","maxpax":null,"oew":"0.0","mzfw":"0.0","mtow":"0.0","mlw":"0.0","maxfuel":"0.0"} DEVELOPMENTAL TEST USE ONLY